»·PEaware :: ABX995 KRDD-KSEA

ABX995 :: KRDD-KSEA

FLIGHT INFORMATION

Flight Status: Arrived
Operator:
Airborne Express
More flights by this operator :: More flights under this callsign
Pilot: Max W. (2591)
Aircraft: BOEING 747-400 (NO WINGLETS)
(B74D)
More flights by this aircraft type
Origin: KRDD Redding Mun
United States
Destination: KSEA Seattle-Tacoma Intl
United States
More flights between these airports :: More routes between these airports
Route: +KREST3 KREST BTG HAWKZ6
File this flight plan on PilotEdge
Remarks:
Altitude:
(Current/Filed)
38,000ft
Speed:
(Current/Filed)
450kts
Departed: 03-Apr-18 08:26 PM
Arrived: 03-Apr-18 09:37 PM
Distance/Time
Traveled:
417nm/1:11
Distance/Time
To Go:
Arrived

Flight Plot

Page will automatically refresh every two minutes.

Flight plan parsing failed; only flown route is shown


Map Options




Map Legend


Flown Route
Filed Route
Departure Airport
Arrival Airport
Navaid (VOR, NDB)
Fix

Horizontal Profiles

Position Reports

Time Latitude Longitude Heading Altitude Ground
Speed
03-Apr-18 19:41 40.503038 -122.298729 180 515ft 0kts
03-Apr-18 19:42 40.503038 -122.298729 180 515ft 0kts
03-Apr-18 19:43 40.503038 -122.298729 180 515ft 0kts
03-Apr-18 19:44 40.503038 -122.298729 180 515ft 0kts
03-Apr-18 19:45 40.503038 -122.298729 180 515ft 0kts
03-Apr-18 19:46 40.503038 -122.298729 180 515ft 0kts
03-Apr-18 19:47 40.503038 -122.298729 180 515ft 0kts
03-Apr-18 19:48 40.503038 -122.298729 180 515ft 0kts
03-Apr-18 19:49 40.503038 -122.298729 180 515ft 0kts
03-Apr-18 19:50 40.503038 -122.298729 180 515ft 0kts
03-Apr-18 19:51 40.503038 -122.298729 180 515ft 0kts
03-Apr-18 19:52 40.503038 -122.298729 180 515ft 0kts
03-Apr-18 19:53 40.503087 -122.298729 180 515ft 1kts
03-Apr-18 19:54 40.503859 -122.298724 180 515ft 2kts
03-Apr-18 19:55 40.504685 -122.298719 180 515ft 2kts
03-Apr-18 19:56 40.504768 -122.298719 180 515ft 0kts
03-Apr-18 19:57 40.504768 -122.298719 180 515ft 0kts
03-Apr-18 19:58 40.504768 -122.298719 180 515ft 0kts
03-Apr-18 19:59 40.504768 -122.298719 180 515ft 0kts
03-Apr-18 20:00 40.504768 -122.298719 180 515ft 0kts
03-Apr-18 20:01 40.504768 -122.298719 180 515ft 0kts
03-Apr-18 20:02 40.504768 -122.298719 180 515ft 0kts
03-Apr-18 20:03 40.504768 -122.298719 180 515ft 0kts
03-Apr-18 20:04 40.504768 -122.298719 180 515ft 0kts
03-Apr-18 20:05 40.504768 -122.298719 180 515ft 0kts
03-Apr-18 20:06 40.504768 -122.298719 180 515ft 0kts
03-Apr-18 20:07 40.504768 -122.298719 180 515ft 0kts
03-Apr-18 20:08 40.504767 -122.298719 179 515ft 0kts
03-Apr-18 20:09 40.504289 -122.298659 115 515ft 0kts
03-Apr-18 20:10 40.504288 -122.298658 115 515ft 0kts
03-Apr-18 20:11 40.504288 -122.298657 115 515ft 0kts
03-Apr-18 20:12 40.504288 -122.298657 115 515ft 0kts
03-Apr-18 20:13 40.504287 -122.298656 115 515ft 0kts
03-Apr-18 20:14 40.504287 -122.298655 115 515ft 0kts
03-Apr-18 20:15 40.504287 -122.298654 115 515ft 0kts
03-Apr-18 20:16 40.504287 -122.298654 115 515ft 0kts
03-Apr-18 20:17 40.504286 -122.298653 115 515ft 0kts
03-Apr-18 20:18 40.504286 -122.298652 115 515ft 0kts
03-Apr-18 20:19 40.504286 -122.298651 115 515ft 0kts
03-Apr-18 20:20 40.503818 -122.298247 150 515ft 16kts
03-Apr-18 20:21 40.502746 -122.297014 134 515ft 0kts
03-Apr-18 20:22 40.502003 -122.296160 143 515ft 5kts
03-Apr-18 20:23 40.502047 -122.294842 358 515ft 0kts
03-Apr-18 20:24 40.502048 -122.294842 358 515ft 0kts
03-Apr-18 20:25 40.518172 -122.294867 0 553ft 189kts
03-Apr-18 20:26 40.576668 -122.280811 17 3159ft 253kts
03-Apr-18 20:27 40.650030 -122.251999 16 6088ft 279kts
03-Apr-18 20:28 40.727563 -122.233336 359 9192ft 290kts
03-Apr-18 20:29 40.809518 -122.238726 354 12085ft 307kts
03-Apr-18 20:30 40.907958 -122.245981 354 12850ft 401kts
03-Apr-18 20:31 41.023997 -122.253863 354 15680ft 427kts
03-Apr-18 20:32 41.145513 -122.261936 353 18503ft 445kts
03-Apr-18 20:33 41.271496 -122.270321 353 21033ft 461kts
03-Apr-18 20:34 41.401669 -122.279051 352 23215ft 478kts
03-Apr-18 20:35 41.536176 -122.288057 351 25426ft 489kts
03-Apr-18 20:36 41.672761 -122.297262 351 27632ft 490kts
03-Apr-18 20:37 41.807973 -122.306424 350 29940ft 479kts
03-Apr-18 20:38 41.940228 -122.315414 349 31783ft 473kts
03-Apr-18 20:39 42.070172 -122.324281 349 33451ft 465kts
03-Apr-18 20:40 42.198750 -122.333087 348 34759ft 460kts
03-Apr-18 20:41 42.325961 -122.341839 347 35843ft 456kts
03-Apr-18 20:42 42.453855 -122.350672 347 36095ft 468kts
03-Apr-18 20:43 42.585890 -122.359827 348 36097ft 479kts
03-Apr-18 20:44 42.719628 -122.369138 348 36099ft 483kts
03-Apr-18 20:45 42.853940 -122.378540 347 36101ft 482kts
03-Apr-18 20:46 42.987626 -122.387924 347 36105ft 481kts
03-Apr-18 20:47 43.121293 -122.397354 347 36106ft 481kts
03-Apr-18 20:48 43.255318 -122.406849 347 36113ft 481kts
03-Apr-18 20:49 43.388802 -122.416349 347 36123ft 481kts
03-Apr-18 20:50 43.522161 -122.425894 347 36123ft 480kts
03-Apr-18 20:51 43.655876 -122.435485 347 36125ft 480kts
03-Apr-18 20:52 43.789180 -122.445096 347 36125ft 480kts
03-Apr-18 20:53 43.922833 -122.454779 347 36126ft 480kts
03-Apr-18 20:54 44.056024 -122.464471 347 36127ft 479kts
03-Apr-18 20:55 44.189068 -122.474207 347 36131ft 479kts
03-Apr-18 20:56 44.300405 -122.482383 347 36132ft 479kts
03-Apr-18 20:57 44.429009 -122.491848 346 36126ft 479kts
03-Apr-18 21:06 45.628956 -122.582353 346 36133ft 473kts
03-Apr-18 21:07 45.759834 -122.594096 342 36074ft 470kts
03-Apr-18 21:08 45.877618 -122.645565 321 33841ft 416kts
03-Apr-18 21:09 45.972198 -122.732152 315 30541ft 391kts
03-Apr-18 21:10 46.065334 -122.810146 344 27193ft 413kts
03-Apr-18 21:11 46.180347 -122.778210 5 24802ft 411kts
03-Apr-18 21:12 46.287258 -122.735427 5 22364ft 391kts
03-Apr-18 21:13 46.389932 -122.723240 349 19968ft 361kts
03-Apr-18 21:14 46.490324 -122.728165 350 18710ft 357kts
03-Apr-18 21:15 46.588959 -122.731846 350 17511ft 352kts
03-Apr-18 21:16 46.685692 -122.735367 351 16377ft 338kts
03-Apr-18 21:17 46.778264 -122.732774 12 15357ft 340kts
03-Apr-18 21:18 46.855979 -122.656344 35 14314ft 331kts
03-Apr-18 21:19 46.927407 -122.574524 25 13426ft 321kts
03-Apr-18 21:20 47.008819 -122.530614 9 12497ft 305kts
03-Apr-18 21:21 47.089755 -122.497853 4 11493ft 296kts
03-Apr-18 21:22 47.170403 -122.483700 2 10490ft 290kts
03-Apr-18 21:23 47.250550 -122.470902 3 9524ft 288kts
03-Apr-18 21:24 47.330058 -122.458734 4 9020ft 283kts
03-Apr-18 21:25 47.404389 -122.454942 357 8495ft 263kts
03-Apr-18 21:26 47.477643 -122.455388 358 7307ft 264kts
03-Apr-18 21:27 47.549988 -122.455531 358 5819ft 254kts
03-Apr-18 21:28 47.615358 -122.455762 359 5039ft 228kts
03-Apr-18 21:29 47.677696 -122.453486 18 4012ft 224kts
03-Apr-18 21:30 47.693902 -122.376110 103 3971ft 200kts
03-Apr-18 21:31 47.653637 -122.323883 145 3929ft 194kts
03-Apr-18 21:32 47.605573 -122.309476 178 3222ft 174kts
03-Apr-18 21:33 47.557592 -122.310180 180 2303ft 170kts
03-Apr-18 21:34 47.510896 -122.310595 180 1368ft 165kts
03-Apr-18 21:35 47.466348 -122.310942 180 523ft 154kts
03-Apr-18 21:36 47.445820 -122.307250 93 446ft 33kts
03-Apr-18 21:37 47.452523 -122.302701 165 446ft 39kts
03-Apr-18 21:38 47.451793 -122.302915 274 446ft 0kts
03-Apr-18 21:39 47.451793 -122.302915 274 446ft 0kts
03-Apr-18 21:40 47.451793 -122.302915 274 446ft 0kts
03-Apr-18 21:41 47.451793 -122.302915 274 446ft 0kts

Navigation Log

Ident Type
Flight plan parsing failed, navigation log unavailable